createdAt,value
2023-03-24T00:01:27.802Z,13.56
2023-03-24T00:03:56.304Z,13.53
2023-03-24T00:06:26.588Z,13.51
2023-03-24T00:08:55.258Z,13.30
2023-03-24T00:11:26.418Z,13.58
2023-03-24T00:13:58.551Z,13.55
2023-03-24T00:16:27.549Z,13.62
2023-03-24T00:18:56.267Z,13.67
2023-03-24T00:21:26.246Z,13.68
2023-03-24T00:23:58.418Z,13.73
2023-03-24T00:26:30.012Z,13.78
2023-03-24T00:28:58.793Z,13.82
2023-03-24T00:31:27.555Z,13.83
2023-03-24T00:33:56.153Z,13.85
2023-03-24T00:36:26.857Z,13.91
2023-03-24T00:38:56.533Z,13.96
2023-03-24T00:41:28.893Z,13.99
2023-03-24T00:43:59.785Z,14.01
2023-03-24T00:46:29.090Z,14.04
2023-03-24T00:49:03.531Z,14.12
2023-03-24T00:51:35.047Z,14.01
2023-03-24T00:54:03.992Z,13.99
2023-03-24T00:56:40.252Z,13.96
2023-03-24T00:59:10.278Z,13.99
2023-03-24T01:01:41.278Z,13.92
2023-03-24T01:04:10.366Z,13.95
2023-03-24T01:06:39.928Z,13.92
2023-03-24T01:09:10.598Z,13.98
2023-03-24T01:11:41.813Z,13.99
2023-03-24T01:14:12.017Z,14.00
2023-03-24T01:16:40.980Z,14.03
2023-03-24T01:19:10.440Z,14.03
2023-03-24T01:21:42.295Z,14.02
2023-03-24T01:24:13.589Z,14.01
2023-03-24T01:26:43.722Z,14.08
2023-03-24T01:29:12.220Z,13.88
2023-03-24T01:31:40.906Z,13.68
2023-03-24T01:34:09.519Z,13.43
2023-03-24T01:36:38.122Z,13.65
2023-03-24T01:39:06.624Z,13.66
2023-03-24T01:41:40.438Z,13.37
2023-03-24T01:44:31.100Z,13.39
2023-03-24T01:47:00.333Z,13.70
2023-03-24T01:49:34.579Z,13.58
2023-03-24T01:52:08.685Z,13.56
2023-03-24T01:54:41.975Z,13.56
2023-03-24T01:57:16.686Z,13.42
2023-03-24T01:59:50.605Z,12.90
2023-03-24T02:02:46.067Z,13.24
2023-03-24T02:05:20.283Z,13.20
2023-03-24T02:07:53.318Z,12.97
2023-03-24T02:10:25.278Z,13.20
2023-03-24T02:12:53.835Z,13.13
2023-03-24T02:15:25.405Z,13.01
2023-03-24T02:18:06.136Z,12.89
2023-03-24T02:21:32.553Z,12.75
2023-03-24T02:24:56.162Z,12.75
2023-03-24T02:27:48.180Z,12.76
2023-03-24T02:30:59.116Z,12.76
2023-03-24T02:34:25.884Z,12.67
2023-03-24T02:37:39.728Z,12.33
2023-03-24T02:40:25.430Z,12.33
2023-03-24T02:43:21.066Z,12.33
2023-03-24T02:46:05.480Z,12.17
2023-03-24T02:48:39.281Z,12.23
2023-03-24T02:51:15.846Z,12.21
2023-03-24T02:53:56.776Z,12.08
2023-03-24T02:56:33.715Z,12.12
2023-03-24T02:59:18.771Z,11.93
2023-03-24T03:01:57.725Z,12.05
2023-03-24T03:04:46.338Z,12.04
2023-03-24T03:07:16.656Z,12.01
2023-03-24T03:09:53.145Z,11.99
2023-03-24T03:12:27.090Z,11.99
2023-03-24T03:15:01.348Z,12.01
2023-03-24T03:17:34.362Z,11.86
2023-03-24T03:20:08.686Z,11.97
2023-03-24T03:22:43.930Z,11.96
2023-03-24T03:25:15.491Z,11.88
2023-03-24T03:27:46.914Z,11.79
2023-03-24T03:30:20.908Z,11.81
2023-03-24T03:32:56.631Z,11.76
2023-03-24T03:35:31.002Z,11.78
2023-03-24T03:38:11.705Z,11.74
2023-03-24T03:40:43.167Z,11.77
2023-03-24T03:43:21.175Z,11.62
2023-03-24T03:45:49.849Z,11.77
2023-03-24T03:48:21.569Z,11.71
2023-03-24T03:50:55.250Z,11.66
2023-03-24T03:53:39.229Z,11.75
2023-03-24T03:56:08.690Z,11.70
2023-03-24T03:58:46.759Z,11.46
2023-03-24T04:01:21.532Z,11.64
2023-03-24T04:05:20.775Z,11.63
2023-03-24T04:08:19.066Z,11.62
2023-03-24T04:11:50.541Z,11.49
2023-03-24T04:15:15.732Z,11.55
2023-03-24T04:18:32.735Z,11.46
2023-03-24T04:21:28.620Z,11.52
2023-03-24T04:24:11.393Z,11.26
2023-03-24T04:26:49.717Z,11.36
2023-03-24T04:29:26.563Z,11.43
2023-03-24T04:32:03.072Z,11.43
2023-03-24T04:34:37.205Z,11.46
2023-03-24T04:37:21.721Z,11.42
2023-03-24T04:40:15.493Z,11.48
2023-03-24T04:42:48.205Z,11.35
2023-03-24T04:45:18.564Z,11.44
2023-03-24T04:47:56.873Z,11.49
2023-03-24T04:50:55.698Z,10.93
2023-03-24T04:53:25.497Z,11.46
2023-03-24T04:56:20.108Z,11.50
2023-03-24T04:59:01.651Z,11.45
2023-03-24T05:01:30.492Z,11.44
2023-03-24T05:04:19.059Z,11.42
2023-03-24T05:06:49.660Z,11.52
2023-03-24T05:09:25.865Z,11.47
2023-03-24T05:11:54.559Z,11.43
2023-03-24T05:14:24.584Z,11.43
2023-03-24T05:16:53.207Z,11.46
2023-03-24T05:19:24.098Z,11.39
2023-03-24T05:21:53.676Z,11.41
2023-03-24T05:24:22.391Z,11.41
2023-03-24T05:26:50.929Z,11.45
2023-03-24T05:29:21.247Z,11.43
2023-03-24T05:31:49.840Z,11.38
2023-03-24T05:34:24.590Z,11.48
2023-03-24T05:37:14.347Z,11.37
2023-03-24T05:39:42.674Z,11.42
2023-03-24T05:42:31.232Z,11.54
2023-03-24T05:45:02.141Z,11.46
2023-03-24T05:47:31.674Z,11.52
2023-03-24T05:50:01.454Z,11.49
2023-03-24T05:52:31.699Z,11.56
2023-03-24T05:55:13.274Z,11.56
2023-03-24T05:57:41.807Z,11.54
2023-03-24T06:00:28.204Z,11.59
2023-03-24T06:03:05.523Z,11.55
2023-03-24T06:05:50.802Z,11.53
2023-03-24T06:08:19.498Z,11.59
2023-03-24T06:10:48.493Z,11.57
2023-03-24T06:13:17.213Z,11.64
2023-03-24T06:15:48.085Z,11.64
2023-03-24T06:18:35.209Z,11.64
2023-03-24T06:21:14.539Z,11.58
2023-03-24T06:23:44.496Z,11.53
2023-03-24T06:26:16.881Z,11.67
2023-03-24T06:28:51.877Z,11.18
2023-03-24T06:31:21.597Z,11.78
2023-03-24T06:33:53.252Z,11.81
2023-03-24T06:36:25.740Z,11.84
2023-03-24T06:38:54.526Z,11.83
2023-03-24T06:41:23.355Z,11.94
2023-03-24T06:43:58.997Z,11.95
2023-03-24T06:46:27.540Z,12.12
2023-03-24T06:48:56.423Z,12.18
2023-03-24T06:51:26.260Z,12.36
2023-03-24T06:53:54.831Z,12.45
2023-03-24T06:56:24.488Z,12.53
2023-03-24T06:58:58.167Z,12.60
2023-03-24T07:01:35.158Z,12.74
2023-03-24T07:04:26.069Z,12.83
2023-03-24T07:07:38.036Z,12.82
2023-03-24T07:10:14.085Z,13.07
2023-03-24T07:12:42.770Z,13.14
2023-03-24T07:15:12.130Z,13.14
2023-03-24T07:17:42.883Z,13.11
2023-03-24T07:20:20.661Z,13.28
2023-03-24T07:22:57.672Z,13.27
2023-03-24T07:25:55.061Z,13.37
2023-03-24T07:28:41.411Z,13.21
2023-03-24T07:31:12.389Z,13.20
2023-03-24T07:33:42.604Z,13.26
2023-03-24T07:36:11.179Z,13.20
2023-03-24T07:38:42.985Z,13.40
2023-03-24T07:41:16.407Z,13.36
2023-03-24T07:43:51.856Z,13.41
2023-03-24T07:46:40.893Z,13.37
2023-03-24T07:49:19.036Z,13.26
2023-03-24T07:51:59.130Z,13.28
2023-03-24T07:54:36.628Z,13.38
2023-03-24T07:57:05.403Z,13.51
2023-03-24T07:59:34.320Z,13.63
2023-03-24T08:02:28.902Z,13.59
2023-03-24T08:05:16.603Z,13.52
2023-03-24T08:08:06.746Z,13.49
2023-03-24T08:10:36.689Z,13.50
2023-03-24T08:13:05.586Z,13.43
2023-03-24T08:15:33.977Z,13.34
2023-03-24T08:18:02.445Z,13.29
2023-03-24T08:20:30.779Z,13.29
2023-03-24T08:23:00.933Z,13.35
2023-03-24T08:25:29.321Z,13.48
2023-03-24T08:27:59.145Z,13.62
2023-03-24T08:30:28.274Z,13.74
2023-03-24T08:32:59.264Z,13.58
2023-03-24T08:35:31.409Z,13.67
2023-03-24T08:38:01.084Z,13.70
2023-03-24T08:40:31.822Z,13.65
2023-03-24T08:43:03.340Z,13.67
2023-03-24T08:45:33.557Z,13.65
2023-03-24T08:48:05.671Z,13.13
2023-03-24T08:50:37.332Z,13.90
2023-03-24T08:53:06.328Z,13.95
2023-03-24T08:55:34.807Z,13.96
2023-03-24T08:58:04.684Z,13.70
2023-03-24T09:00:33.036Z,13.90
2023-03-24T09:03:01.990Z,13.94
2023-03-24T09:05:43.853Z,14.20
2023-03-24T09:08:13.994Z,14.29
2023-03-24T09:10:43.922Z,14.46
2023-03-24T09:13:14.190Z,14.50
2023-03-24T09:15:48.767Z,14.31
2023-03-24T09:18:18.405Z,14.11
2023-03-24T09:20:47.392Z,14.09
2023-03-24T09:23:16.363Z,14.43
2023-03-24T09:25:45.106Z,14.43
2023-03-24T09:28:16.186Z,14.58
2023-03-24T09:30:45.279Z,14.88
2023-03-24T09:33:14.019Z,15.08
2023-03-24T09:35:43.053Z,15.22
2023-03-24T09:38:12.266Z,15.36
2023-03-24T09:40:41.824Z,15.34
2023-03-24T09:43:21.967Z,15.41
2023-03-24T09:45:53.843Z,15.23
2023-03-24T09:48:32.905Z,15.17
2023-03-24T09:51:05.320Z,15.18
2023-03-24T09:53:44.362Z,14.95
2023-03-24T09:56:17.390Z,14.73
2023-03-24T09:58:54.459Z,14.81
2023-03-24T10:01:23.314Z,14.56
2023-03-24T10:03:51.763Z,14.89
2023-03-24T10:06:26.615Z,15.03
2023-03-24T10:09:14.745Z,14.94
2023-03-24T10:11:51.231Z,14.89
2023-03-24T10:14:39.498Z,14.81
2023-03-24T10:17:21.897Z,14.82
2023-03-24T10:20:00.290Z,14.84
2023-03-24T10:22:37.625Z,14.80
2023-03-24T10:25:16.075Z,14.55
2023-03-24T10:27:50.851Z,14.56
2023-03-24T10:30:24.524Z,14.38
2023-03-24T10:32:54.741Z,14.76
2023-03-24T10:35:28.989Z,15.00
2023-03-24T10:38:02.176Z,14.88
2023-03-24T10:40:35.026Z,15.24
2023-03-24T10:43:09.793Z,15.38
2023-03-24T10:45:42.982Z,15.25
2023-03-24T10:48:14.937Z,15.07
2023-03-24T10:50:46.188Z,14.82
2023-03-24T10:53:20.401Z,14.84
2023-03-24T10:55:51.797Z,15.00
2023-03-24T10:58:31.195Z,15.04
2023-03-24T11:01:01.776Z,15.06
2023-03-24T11:03:33.096Z,14.90
2023-03-24T11:06:03.901Z,14.70
2023-03-24T11:08:35.632Z,14.60
2023-03-24T11:11:16.480Z,14.64
2023-03-24T11:13:55.219Z,14.93
2023-03-24T11:16:30.213Z,15.15
2023-03-24T11:19:01.609Z,15.02
2023-03-24T11:21:32.480Z,15.29
2023-03-24T11:24:02.979Z,15.30
2023-03-24T11:26:34.712Z,15.42
2023-03-24T11:29:07.600Z,15.34
2023-03-24T11:31:40.091Z,15.68
2023-03-24T11:34:11.818Z,15.74
2023-03-24T11:36:46.797Z,15.54
2023-03-24T11:39:21.369Z,15.28
2023-03-24T11:42:05.069Z,15.28
2023-03-24T11:44:45.543Z,15.22
2023-03-24T11:47:25.152Z,15.27
2023-03-24T11:50:05.228Z,15.61
2023-03-24T11:52:39.724Z,15.96
2023-03-24T11:55:17.474Z,16.16
2023-03-24T11:57:55.621Z,15.80
2023-03-24T12:00:29.844Z,15.71
2023-03-24T12:03:37.299Z,15.40
2023-03-24T12:06:22.645Z,15.42
2023-03-24T12:09:06.114Z,15.49
2023-03-24T12:11:50.756Z,15.45
2023-03-24T12:14:29.440Z,15.19
2023-03-24T12:17:03.726Z,15.09
2023-03-24T12:20:14.618Z,14.96
2023-03-24T12:22:56.128Z,15.10
2023-03-24T12:26:01.426Z,15.10
2023-03-24T12:28:53.455Z,15.12
2023-03-24T12:31:44.083Z,15.00
2023-03-24T12:34:46.082Z,14.82
2023-03-24T12:37:26.653Z,14.70
2023-03-24T12:40:12.946Z,14.84
2023-03-24T12:42:44.476Z,15.07
2023-03-24T12:45:27.997Z,15.21
2023-03-24T12:48:15.470Z,15.00
2023-03-24T12:51:00.104Z,15.08
2023-03-24T12:53:45.059Z,15.09
2023-03-24T12:56:18.470Z,14.40
2023-03-24T12:58:51.124Z,15.17
2023-03-24T13:01:27.059Z,15.29
2023-03-24T13:04:05.513Z,15.37
2023-03-24T13:06:40.326Z,15.53
2023-03-24T13:09:21.061Z,15.55
2023-03-24T13:11:54.687Z,15.48
2023-03-24T13:14:29.865Z,15.43
2023-03-24T13:17:06.042Z,15.51
2023-03-24T13:19:37.804Z,15.62
2023-03-24T13:22:12.890Z,15.49
2023-03-24T13:24:42.871Z,15.49
2023-03-24T13:27:17.680Z,15.26
2023-03-24T13:30:09.048Z,15.30
2023-03-24T13:32:41.788Z,15.14
2023-03-24T13:35:21.792Z,14.99
2023-03-24T13:37:55.559Z,15.07
2023-03-24T13:40:28.078Z,14.97
2023-03-24T13:42:58.573Z,14.91
2023-03-24T13:45:40.718Z,15.16
2023-03-24T13:48:25.895Z,15.11
2023-03-24T13:51:00.644Z,15.07
2023-03-24T13:53:41.188Z,15.05
2023-03-24T13:56:13.475Z,15.04
2023-03-24T13:58:52.829Z,15.01
2023-03-24T14:01:38.761Z,15.19
2023-03-24T14:04:29.110Z,15.01
2023-03-24T14:06:59.919Z,15.21
2023-03-24T14:09:30.733Z,15.28
2023-03-24T14:12:21.441Z,15.10
2023-03-24T14:15:19.232Z,15.16
2023-03-24T14:17:50.627Z,15.17
2023-03-24T14:20:41.180Z,15.54
2023-03-24T14:23:24.596Z,15.47
2023-03-24T14:25:56.521Z,15.27
2023-03-24T14:28:38.609Z,15.32
2023-03-24T14:31:20.797Z,14.81
2023-03-24T14:34:10.953Z,15.19
2023-03-24T14:36:42.440Z,15.10
2023-03-24T14:39:22.136Z,15.05
2023-03-24T14:41:52.638Z,15.09
2023-03-24T14:44:56.966Z,15.06
2023-03-24T14:47:29.867Z,14.85
2023-03-24T14:50:01.253Z,14.95
2023-03-24T14:52:36.581Z,14.88
2023-03-24T14:55:09.037Z,14.35
2023-03-24T14:57:41.915Z,15.05
2023-03-24T15:00:20.566Z,15.07
2023-03-24T15:02:51.652Z,15.04
2023-03-24T15:05:26.063Z,15.07
2023-03-24T15:08:12.798Z,15.00
2023-03-24T15:10:50.073Z,14.97
2023-03-24T15:13:34.098Z,14.93
2023-03-24T15:16:08.663Z,14.95
2023-03-24T15:18:40.365Z,14.21
2023-03-24T15:21:17.777Z,14.95
2023-03-24T15:23:49.102Z,14.93
2023-03-24T15:26:18.787Z,14.86
2023-03-24T15:28:47.434Z,14.81
2023-03-24T15:31:17.258Z,14.91
2023-03-24T15:33:47.029Z,14.93
2023-03-24T15:36:18.825Z,14.82
2023-03-24T15:38:50.827Z,14.37
2023-03-24T15:41:21.712Z,14.76
2023-03-24T15:43:53.692Z,14.65
2023-03-24T15:46:27.536Z,14.68
2023-03-24T15:48:57.873Z,14.58
2023-03-24T15:51:48.879Z,14.64
2023-03-24T15:54:24.403Z,14.48
2023-03-24T15:57:17.258Z,14.44
2023-03-24T15:59:49.113Z,14.35
2023-03-24T16:02:38.981Z,14.35
2023-03-24T16:05:21.982Z,14.44
2023-03-24T16:07:58.816Z,14.33
2023-03-24T16:10:39.312Z,14.21
2023-03-24T16:13:18.268Z,14.31
2023-03-24T16:15:49.456Z,14.42
2023-03-24T16:18:25.015Z,14.36
2023-03-24T16:20:53.440Z,14.45
2023-03-24T16:23:21.720Z,14.52
2023-03-24T16:25:50.052Z,14.51
2023-03-24T16:28:21.819Z,13.97
2023-03-24T16:30:57.835Z,14.38
2023-03-24T16:33:28.382Z,14.49
2023-03-24T16:35:56.786Z,14.62
2023-03-24T16:38:25.101Z,14.51
2023-03-24T16:40:56.653Z,14.50
2023-03-24T16:43:27.361Z,14.43
2023-03-24T16:45:55.921Z,14.31
2023-03-24T16:48:24.321Z,14.40
2023-03-24T16:50:55.955Z,14.43
2023-03-24T16:53:24.325Z,14.33
2023-03-24T16:55:52.670Z,14.18
2023-03-24T16:58:21.082Z,14.21
2023-03-24T17:00:50.164Z,14.25
2023-03-24T17:03:19.007Z,14.23
2023-03-24T17:05:51.152Z,14.27
2023-03-24T17:08:20.944Z,14.30
2023-03-24T17:10:53.006Z,14.24
2023-03-24T17:13:23.595Z,14.35
2023-03-24T17:15:52.590Z,14.15
2023-03-24T17:18:21.492Z,14.16
2023-03-24T17:20:50.101Z,14.05
2023-03-24T17:23:20.193Z,14.07
2023-03-24T17:25:48.721Z,13.92
2023-03-24T17:28:18.323Z,13.92
2023-03-24T17:30:47.009Z,13.83
2023-03-24T17:33:15.876Z,13.84
2023-03-24T17:35:46.640Z,13.71
2023-03-24T17:38:16.598Z,13.55
2023-03-24T17:40:47.527Z,13.61
2023-03-24T17:43:16.659Z,13.56
2023-03-24T17:45:45.013Z,13.61
2023-03-24T17:48:13.389Z,13.43
2023-03-24T17:50:42.094Z,13.39
2023-03-24T17:53:13.641Z,13.35
2023-03-24T17:55:42.653Z,13.31
2023-03-24T17:58:12.281Z,13.23
2023-03-24T18:00:41.475Z,13.11
2023-03-24T18:03:09.843Z,13.11
2023-03-24T18:05:38.227Z,13.12
2023-03-24T18:08:07.384Z,13.02
2023-03-24T18:10:36.915Z,12.92
2023-03-24T18:13:06.008Z,13.11
2023-03-24T18:15:36.754Z,12.94
2023-03-24T18:18:05.863Z,12.96
2023-03-24T18:20:36.373Z,12.86
2023-03-24T18:23:04.826Z,12.89
2023-03-24T18:25:33.799Z,12.90
2023-03-24T18:28:02.568Z,12.81
2023-03-24T18:30:32.244Z,12.79
2023-03-24T18:33:02.292Z,12.73
2023-03-24T18:35:30.733Z,12.76
2023-03-24T18:37:59.105Z,12.87
2023-03-24T18:40:27.646Z,12.76
2023-03-24T18:42:55.946Z,12.85
2023-03-24T18:45:24.293Z,12.91
2023-03-24T18:47:52.707Z,12.75
2023-03-24T18:50:22.453Z,12.82
2023-03-24T18:52:50.819Z,12.77
2023-03-24T18:55:20.845Z,12.71
2023-03-24T18:57:49.119Z,12.60
2023-03-24T19:00:20.162Z,12.64
2023-03-24T19:02:48.669Z,12.32
2023-03-24T19:05:17.213Z,12.49
2023-03-24T19:07:48.529Z,12.47
2023-03-24T19:10:17.135Z,12.51
2023-03-24T19:12:45.688Z,12.51
2023-03-24T19:15:14.604Z,12.50
2023-03-24T19:17:42.911Z,12.47
2023-03-24T19:20:12.745Z,12.55
2023-03-24T19:22:41.787Z,12.44
2023-03-24T19:25:11.572Z,12.56
2023-03-24T19:27:39.914Z,12.51
2023-03-24T19:30:09.973Z,12.60
2023-03-24T19:32:38.341Z,12.52
2023-03-24T19:35:08.257Z,12.66
2023-03-24T19:37:37.681Z,12.70
2023-03-24T19:40:11.441Z,12.69
2023-03-24T19:42:42.000Z,12.64
2023-03-24T19:45:12.313Z,12.63
2023-03-24T19:47:40.903Z,12.55
2023-03-24T19:50:11.295Z,12.64
2023-03-24T19:52:39.766Z,12.68
2023-03-24T19:55:08.974Z,12.65
2023-03-24T19:57:37.587Z,12.62
2023-03-24T20:00:11.752Z,12.61
2023-03-24T20:02:40.386Z,12.56
2023-03-24T20:05:10.836Z,12.59
2023-03-24T20:07:39.786Z,12.58
2023-03-24T20:10:09.921Z,12.56
2023-03-24T20:12:38.369Z,12.56
2023-03-24T20:15:09.589Z,12.43
2023-03-24T20:17:39.370Z,12.49
2023-03-24T20:20:11.301Z,12.49
2023-03-24T20:22:42.108Z,12.40
2023-03-24T20:25:12.401Z,12.46
2023-03-24T20:27:41.215Z,12.43
2023-03-24T20:30:13.650Z,12.53
2023-03-24T20:32:42.151Z,12.45
2023-03-24T20:35:11.854Z,12.47
2023-03-24T20:37:40.192Z,12.42
2023-03-24T20:40:10.775Z,12.40
2023-03-24T20:42:39.922Z,12.33
2023-03-24T20:45:12.717Z,12.15
2023-03-24T20:47:41.307Z,12.35
2023-03-24T20:50:11.513Z,12.31
2023-03-24T20:52:41.337Z,12.25
2023-03-24T20:55:11.533Z,12.23
2023-03-24T20:57:40.223Z,12.23
2023-03-24T21:00:14.326Z,12.35
2023-03-24T21:02:43.616Z,12.26
2023-03-24T21:05:12.343Z,12.27
2023-03-24T21:07:43.685Z,12.22
2023-03-24T21:10:12.740Z,12.14
2023-03-24T21:12:52.330Z,12.21
2023-03-24T21:15:27.524Z,12.13
2023-03-24T21:17:56.142Z,12.06
2023-03-24T21:20:26.850Z,12.07
2023-03-24T21:22:55.733Z,12.03
2023-03-24T21:25:27.512Z,11.98
2023-03-24T21:27:56.868Z,11.81
2023-03-24T21:30:27.925Z,11.99
2023-03-24T21:32:58.088Z,11.97
2023-03-24T21:35:26.586Z,12.00
2023-03-24T21:37:56.142Z,11.98
2023-03-24T21:40:26.577Z,11.88
2023-03-24T21:42:55.915Z,12.01
2023-03-24T21:45:27.569Z,11.99
2023-03-24T21:47:56.069Z,12.00
2023-03-24T21:50:25.788Z,12.08
2023-03-24T21:52:55.454Z,11.94
2023-03-24T21:55:26.904Z,12.02
2023-03-24T21:57:56.686Z,11.96
2023-03-24T22:00:29.978Z,12.00
2023-03-24T22:02:58.556Z,12.05
2023-03-24T22:05:27.726Z,11.95
2023-03-24T22:07:57.017Z,11.99
2023-03-24T22:10:29.647Z,11.89
2023-03-24T22:12:58.286Z,11.94
2023-03-24T22:15:29.409Z,11.92
2023-03-24T22:17:58.865Z,11.87
2023-03-24T22:20:28.132Z,11.91
2023-03-24T22:22:56.588Z,11.92
2023-03-24T22:25:24.996Z,11.82
2023-03-24T22:27:56.046Z,11.83
2023-03-24T22:30:24.637Z,11.93
2023-03-24T22:32:54.282Z,11.86
2023-03-24T22:35:23.328Z,11.85
2023-03-24T22:37:51.734Z,11.94
2023-03-24T22:40:20.217Z,11.85
2023-03-24T22:42:48.545Z,11.83
2023-03-24T22:45:17.180Z,11.68
2023-03-24T22:47:45.545Z,11.75
2023-03-24T22:50:15.316Z,11.70
2023-03-24T22:52:43.663Z,11.72
2023-03-24T22:55:12.048Z,11.67
2023-03-24T22:57:40.445Z,11.67
2023-03-24T23:00:10.941Z,11.66
2023-03-24T23:02:39.621Z,11.70
2023-03-24T23:05:08.413Z,11.65
2023-03-24T23:07:38.340Z,11.75
2023-03-24T23:10:08.442Z,11.72
2023-03-24T23:12:37.662Z,11.65
2023-03-24T23:15:07.719Z,11.68
2023-03-24T23:17:36.466Z,11.76
2023-03-24T23:20:07.721Z,11.67
2023-03-24T23:22:38.356Z,11.71
2023-03-24T23:25:08.061Z,11.64
2023-03-24T23:27:37.522Z,11.65
2023-03-24T23:30:08.876Z,11.64
2023-03-24T23:32:38.084Z,11.61
2023-03-24T23:35:09.151Z,11.61
2023-03-24T23:37:39.675Z,11.66
2023-03-24T23:40:12.861Z,11.57
2023-03-24T23:42:42.785Z,11.56
2023-03-24T23:45:14.781Z,11.57
2023-03-24T23:47:44.133Z,11.58
2023-03-24T23:50:13.533Z,11.68
2023-03-24T23:52:43.972Z,11.64
2023-03-24T23:55:13.010Z,11.63
2023-03-24T23:57:42.731Z,11.62
